sensor_id;sensor_type;location;lat;lon;timestamp;P1;durP1;ratioP1;P2;durP2;ratioP2
26050;SDS011;13825;53.496;10.020;2023-09-19T00:01:13;2.23;;;1.47;;
26050;SDS011;13825;53.496;10.020;2023-09-19T00:03:43;1.30;;;1.20;;
26050;SDS011;13825;53.496;10.020;2023-09-19T00:06:20;2.23;;;1.60;;
26050;SDS011;13825;53.496;10.020;2023-09-19T00:08:51;3.10;;;1.50;;
26050;SDS011;13825;53.496;10.020;2023-09-19T00:11:19;3.40;;;1.60;;
26050;SDS011;13825;53.496;10.020;2023-09-19T00:13:47;2.30;;;1.70;;
26050;SDS011;13825;53.496;10.020;2023-09-19T00:16:15;2.13;;;1.47;;
26050;SDS011;13825;53.496;10.020;2023-09-19T00:18:44;3.70;;;1.60;;
26050;SDS011;13825;53.496;10.020;2023-09-19T00:21:49;3.20;;;1.90;;
26050;SDS011;13825;53.496;10.020;2023-09-19T00:24:07;3.60;;;1.43;;
26050;SDS011;13825;53.496;10.020;2023-09-19T00:26:35;2.10;;;1.70;;
26050;SDS011;13825;53.496;10.020;2023-09-19T00:29:03;2.70;;;1.60;;
26050;SDS011;13825;53.496;10.020;2023-09-19T00:31:33;2.90;;;1.67;;
26050;SDS011;13825;53.496;10.020;2023-09-19T00:34:13;3.13;;;1.90;;
26050;SDS011;13825;53.496;10.020;2023-09-19T00:36:41;2.13;;;1.40;;
26050;SDS011;13825;53.496;10.020;2023-09-19T00:39:08;2.20;;;2.00;;
26050;SDS011;13825;53.496;10.020;2023-09-19T00:47:56;2.93;;;1.87;;
26050;SDS011;13825;53.496;10.020;2023-09-19T00:51:11;2.67;;;1.70;;
26050;SDS011;13825;53.496;10.020;2023-09-19T00:53:44;2.47;;;1.93;;
26050;SDS011;13825;53.496;10.020;2023-09-19T00:56:20;2.13;;;1.70;;
26050;SDS011;13825;53.496;10.020;2023-09-19T00:58:58;4.17;;;1.83;;
26050;SDS011;13825;53.496;10.020;2023-09-19T01:01:27;2.97;;;1.80;;
26050;SDS011;13825;53.496;10.020;2023-09-19T01:03:54;2.50;;;1.80;;
26050;SDS011;13825;53.496;10.020;2023-09-19T01:06:23;4.80;;;2.13;;
26050;SDS011;13825;53.496;10.020;2023-09-19T01:08:52;4.13;;;2.00;;
26050;SDS011;13825;53.496;10.020;2023-09-19T01:11:21;2.33;;;2.00;;
26050;SDS011;13825;53.496;10.020;2023-09-19T01:13:56;3.73;;;2.40;;
26050;SDS011;13825;53.496;10.020;2023-09-19T01:16:32;2.20;;;2.00;;
26050;SDS011;13825;53.496;10.020;2023-09-19T01:19:14;2.60;;;2.13;;
26050;SDS011;13825;53.496;10.020;2023-09-19T01:22:08;3.70;;;2.80;;
26050;SDS011;13825;53.496;10.020;2023-09-19T01:24:54;3.37;;;2.40;;
26050;SDS011;13825;53.496;10.020;2023-09-19T01:27:53;3.27;;;2.50;;
26050;SDS011;13825;53.496;10.020;2023-09-19T01:30:42;3.07;;;2.43;;
26050;SDS011;13825;53.496;10.020;2023-09-19T01:33:15;4.07;;;2.40;;
26050;SDS011;13825;53.496;10.020;2023-09-19T01:35:42;4.57;;;2.77;;
26050;SDS011;13825;53.496;10.020;2023-09-19T01:38:10;6.03;;;2.70;;
26050;SDS011;13825;53.496;10.020;2023-09-19T01:40:40;6.33;;;2.70;;
26050;SDS011;13825;53.496;10.020;2023-09-19T01:43:09;2.80;;;2.47;;
26050;SDS011;13825;53.496;10.020;2023-09-19T01:45:46;6.23;;;2.80;;
26050;SDS011;13825;53.496;10.020;2023-09-19T01:48:24;2.97;;;2.37;;
26050;SDS011;13825;53.496;10.020;2023-09-19T01:51:02;6.50;;;2.47;;
26050;SDS011;13825;53.496;10.020;2023-09-19T01:53:33;4.03;;;2.70;;
26050;SDS011;13825;53.496;10.020;2023-09-19T01:56:14;3.53;;;2.30;;
26050;SDS011;13825;53.496;10.020;2023-09-19T01:58:48;4.93;;;2.17;;
26050;SDS011;13825;53.496;10.020;2023-09-19T02:01:20;4.70;;;2.70;;
26050;SDS011;13825;53.496;10.020;2023-09-19T02:03:50;3.30;;;2.40;;
26050;SDS011;13825;53.496;10.020;2023-09-19T02:06:18;3.03;;;2.13;;
26050;SDS011;13825;53.496;10.020;2023-09-19T02:08:52;5.37;;;3.40;;
26050;SDS011;13825;53.496;10.020;2023-09-19T02:11:23;5.60;;;2.77;;
26050;SDS011;13825;53.496;10.020;2023-09-19T02:13:53;3.90;;;2.47;;
26050;SDS011;13825;53.496;10.020;2023-09-19T02:16:22;3.73;;;2.60;;
26050;SDS011;13825;53.496;10.020;2023-09-19T02:18:49;3.63;;;2.60;;
26050;SDS011;13825;53.496;10.020;2023-09-19T02:21:16;4.00;;;2.53;;
26050;SDS011;13825;53.496;10.020;2023-09-19T02:23:43;5.50;;;2.23;;
26050;SDS011;13825;53.496;10.020;2023-09-19T02:26:12;5.83;;;2.60;;
26050;SDS011;13825;53.496;10.020;2023-09-19T02:28:39;3.40;;;2.50;;
26050;SDS011;13825;53.496;10.020;2023-09-19T02:31:06;6.13;;;3.13;;
26050;SDS011;13825;53.496;10.020;2023-09-19T02:33:47;7.13;;;2.70;;
26050;SDS011;13825;53.496;10.020;2023-09-19T02:36:14;5.07;;;2.87;;
26050;SDS011;13825;53.496;10.020;2023-09-19T02:38:51;7.03;;;2.57;;
26050;SDS011;13825;53.496;10.020;2023-09-19T02:41:21;7.07;;;2.77;;
26050;SDS011;13825;53.496;10.020;2023-09-19T02:43:54;4.77;;;2.70;;
26050;SDS011;13825;53.496;10.020;2023-09-19T02:46:22;5.50;;;2.97;;
26050;SDS011;13825;53.496;10.020;2023-09-19T02:48:57;4.27;;;2.30;;
26050;SDS011;13825;53.496;10.020;2023-09-19T02:51:30;7.03;;;2.47;;
26050;SDS011;13825;53.496;10.020;2023-09-19T02:53:58;3.77;;;2.27;;
26050;SDS011;13825;53.496;10.020;2023-09-19T02:56:25;3.80;;;2.37;;
26050;SDS011;13825;53.496;10.020;2023-09-19T02:58:52;3.73;;;2.10;;
26050;SDS011;13825;53.496;10.020;2023-09-19T03:01:20;5.53;;;2.07;;
26050;SDS011;13825;53.496;10.020;2023-09-19T03:03:47;2.77;;;2.30;;
26050;SDS011;13825;53.496;10.020;2023-09-19T03:06:20;2.60;;;2.17;;
26050;SDS011;13825;53.496;10.020;2023-09-19T03:08:47;4.67;;;2.10;;
26050;SDS011;13825;53.496;10.020;2023-09-19T03:14:07;5.10;;;2.03;;
26050;SDS011;13825;53.496;10.020;2023-09-19T03:16:41;3.47;;;2.30;;
26050;SDS011;13825;53.496;10.020;2023-09-19T03:19:09;4.03;;;1.83;;
26050;SDS011;13825;53.496;10.020;2023-09-19T03:21:38;2.63;;;1.90;;
26050;SDS011;13825;53.496;10.020;2023-09-19T03:24:07;5.33;;;2.40;;
26050;SDS011;13825;53.496;10.020;2023-09-19T03:26:37;3.13;;;2.13;;
26050;SDS011;13825;53.496;10.020;2023-09-19T03:29:04;3.27;;;2.20;;
26050;SDS011;13825;53.496;10.020;2023-09-19T03:31:33;3.93;;;2.57;;
26050;SDS011;13825;53.496;10.020;2023-09-19T03:34:02;2.83;;;2.07;;
26050;SDS011;13825;53.496;10.020;2023-09-19T03:36:30;5.13;;;2.10;;
26050;SDS011;13825;53.496;10.020;2023-09-19T03:39:12;4.07;;;1.87;;
26050;SDS011;13825;53.496;10.020;2023-09-19T03:41:40;7.77;;;2.10;;
26050;SDS011;13825;53.496;10.020;2023-09-19T03:44:08;4.63;;;1.97;;
26050;SDS011;13825;53.496;10.020;2023-09-19T03:46:35;4.00;;;2.17;;
26050;SDS011;13825;53.496;10.020;2023-09-19T03:49:02;2.17;;;1.70;;
26050;SDS011;13825;53.496;10.020;2023-09-19T03:51:29;3.07;;;1.63;;
26050;SDS011;13825;53.496;10.020;2023-09-19T03:53:56;2.33;;;1.80;;
26050;SDS011;13825;53.496;10.020;2023-09-19T03:56:25;1.90;;;1.50;;
26050;SDS011;13825;53.496;10.020;2023-09-19T03:59:05;3.87;;;1.80;;
26050;SDS011;13825;53.496;10.020;2023-09-19T04:04:47;3.20;;;1.57;;
26050;SDS011;13825;53.496;10.020;2023-09-19T04:11:06;2.10;;;1.27;;
26050;SDS011;13825;53.496;10.020;2023-09-19T04:14:16;2.27;;;1.50;;
26050;SDS011;13825;53.496;10.020;2023-09-19T04:16:57;3.67;;;1.37;;
26050;SDS011;13825;53.496;10.020;2023-09-19T04:19:40;3.50;;;1.67;;
26050;SDS011;13825;53.496;10.020;2023-09-19T04:22:07;1.57;;;1.20;;
26050;SDS011;13825;53.496;10.020;2023-09-19T04:24:34;1.87;;;1.30;;
26050;SDS011;13825;53.496;10.020;2023-09-19T04:27:03;6.87;;;1.60;;
26050;SDS011;13825;53.496;10.020;2023-09-19T04:29:32;1.87;;;1.37;;
26050;SDS011;13825;53.496;10.020;2023-09-19T04:32:00;3.63;;;1.53;;
26050;SDS011;13825;53.496;10.020;2023-09-19T04:34:29;4.80;;;1.50;;
26050;SDS011;13825;53.496;10.020;2023-09-19T04:36:56;5.57;;;1.80;;
26050;SDS011;13825;53.496;10.020;2023-09-19T04:39:43;5.13;;;1.53;;
26050;SDS011;13825;53.496;10.020;2023-09-19T04:46:21;5.57;;;1.50;;
26050;SDS011;13825;53.496;10.020;2023-09-19T04:48:55;2.03;;;1.50;;
26050;SDS011;13825;53.496;10.020;2023-09-19T04:51:22;3.30;;;1.50;;
26050;SDS011;13825;53.496;10.020;2023-09-19T04:53:59;4.53;;;1.73;;
26050;SDS011;13825;53.496;10.020;2023-09-19T04:56:31;2.93;;;2.07;;
26050;SDS011;13825;53.496;10.020;2023-09-19T04:58:59;3.93;;;1.83;;
26050;SDS011;13825;53.496;10.020;2023-09-19T05:01:27;4.80;;;1.33;;
26050;SDS011;13825;53.496;10.020;2023-09-19T05:03:54;1.50;;;1.30;;
26050;SDS011;13825;53.496;10.020;2023-09-19T05:06:21;6.90;;;1.60;;
26050;SDS011;13825;53.496;10.020;2023-09-19T05:08:49;5.23;;;1.60;;
26050;SDS011;13825;53.496;10.020;2023-09-19T05:11:17;1.53;;;1.20;;
26050;SDS011;13825;53.496;10.020;2023-09-19T05:13:44;4.53;;;1.63;;
26050;SDS011;13825;53.496;10.020;2023-09-19T05:16:14;4.70;;;1.47;;
26050;SDS011;13825;53.496;10.020;2023-09-19T05:18:42;4.90;;;1.63;;
26050;SDS011;13825;53.496;10.020;2023-09-19T05:21:12;3.77;;;1.70;;
26050;SDS011;13825;53.496;10.020;2023-09-19T05:23:39;3.10;;;1.60;;
26050;SDS011;13825;53.496;10.020;2023-09-19T05:26:07;6.43;;;1.67;;
26050;SDS011;13825;53.496;10.020;2023-09-19T05:28:35;5.73;;;1.70;;
26050;SDS011;13825;53.496;10.020;2023-09-19T05:31:03;4.03;;;1.30;;
26050;SDS011;13825;53.496;10.020;2023-09-19T05:33:30;2.37;;;1.53;;
26050;SDS011;13825;53.496;10.020;2023-09-19T05:36:01;3.77;;;1.47;;
26050;SDS011;13825;53.496;10.020;2023-09-19T05:38:41;3.77;;;1.70;;
26050;SDS011;13825;53.496;10.020;2023-09-19T05:41:13;2.50;;;1.50;;
26050;SDS011;13825;53.496;10.020;2023-09-19T05:43:43;4.47;;;1.77;;
26050;SDS011;13825;53.496;10.020;2023-09-19T05:46:10;6.97;;;2.00;;
26050;SDS011;13825;53.496;10.020;2023-09-19T05:48:37;4.23;;;1.70;;
26050;SDS011;13825;53.496;10.020;2023-09-19T05:51:06;4.23;;;1.37;;
26050;SDS011;13825;53.496;10.020;2023-09-19T05:53:45;5.03;;;1.60;;
26050;SDS011;13825;53.496;10.020;2023-09-19T05:56:25;2.67;;;1.50;;
26050;SDS011;13825;53.496;10.020;2023-09-19T05:58:53;1.60;;;1.27;;
26050;SDS011;13825;53.496;10.020;2023-09-19T06:01:21;4.03;;;2.00;;
26050;SDS011;13825;53.496;10.020;2023-09-19T06:03:48;8.30;;;2.10;;
26050;SDS011;13825;53.496;10.020;2023-09-19T06:06:19;3.03;;;1.50;;
26050;SDS011;13825;53.496;10.020;2023-09-19T06:08:46;3.37;;;1.70;;
26050;SDS011;13825;53.496;10.020;2023-09-19T06:11:15;2.57;;;1.43;;
26050;SDS011;13825;53.496;10.020;2023-09-19T06:13:48;5.30;;;1.60;;
26050;SDS011;13825;53.496;10.020;2023-09-19T06:16:37;6.20;;;1.93;;
26050;SDS011;13825;53.496;10.020;2023-09-19T06:19:32;3.70;;;1.40;;
26050;SDS011;13825;53.496;10.020;2023-09-19T07:07:24;7.00;;;2.10;;
26050;SDS011;13825;53.496;10.020;2023-09-19T07:17:15;7.10;;;2.10;;
26050;SDS011;13825;53.496;10.020;2023-09-19T07:26:57;4.77;;;1.70;;
26050;SDS011;13825;53.496;10.020;2023-09-19T07:29:49;5.20;;;2.07;;
26050;SDS011;13825;53.496;10.020;2023-09-19T07:32:28;5.83;;;1.77;;
26050;SDS011;13825;53.496;10.020;2023-09-19T07:35:01;7.43;;;2.10;;
26050;SDS011;13825;53.496;10.020;2023-09-19T07:38:07;4.93;;;2.60;;
26050;SDS011;13825;53.496;10.020;2023-09-19T07:43:28;5.33;;;2.23;;
26050;SDS011;13825;53.496;10.020;2023-09-19T07:46:09;8.67;;;3.20;;
26050;SDS011;13825;53.496;10.020;2023-09-19T07:48:38;6.77;;;2.43;;
26050;SDS011;13825;53.496;10.020;2023-09-19T07:51:13;7.27;;;2.37;;
26050;SDS011;13825;53.496;10.020;2023-09-19T07:53:41;8.03;;;2.30;;
26050;SDS011;13825;53.496;10.020;2023-09-19T07:56:10;7.43;;;2.17;;
26050;SDS011;13825;53.496;10.020;2023-09-19T07:58:39;7.63;;;2.10;;
26050;SDS011;13825;53.496;10.020;2023-09-19T08:01:09;6.27;;;1.97;;
26050;SDS011;13825;53.496;10.020;2023-09-19T08:03:37;6.77;;;2.17;;
26050;SDS011;13825;53.496;10.020;2023-09-19T08:06:05;6.87;;;2.23;;
26050;SDS011;13825;53.496;10.020;2023-09-19T08:08:33;2.90;;;1.93;;
26050;SDS011;13825;53.496;10.020;2023-09-19T08:11:02;7.87;;;2.23;;
26050;SDS011;13825;53.496;10.020;2023-09-19T08:13:37;4.37;;;1.73;;
26050;SDS011;13825;53.496;10.020;2023-09-19T08:16:11;4.03;;;2.03;;
26050;SDS011;13825;53.496;10.020;2023-09-19T08:18:40;10.53;;;2.40;;
26050;SDS011;13825;53.496;10.020;2023-09-19T08:21:08;4.23;;;1.90;;
26050;SDS011;13825;53.496;10.020;2023-09-19T08:23:38;4.50;;;2.00;;
26050;SDS011;13825;53.496;10.020;2023-09-19T08:26:11;5.17;;;2.73;;
26050;SDS011;13825;53.496;10.020;2023-09-19T08:29:02;4.07;;;1.90;;
26050;SDS011;13825;53.496;10.020;2023-09-19T08:31:39;5.10;;;1.93;;
26050;SDS011;13825;53.496;10.020;2023-09-19T08:34:16;4.87;;;2.00;;
26050;SDS011;13825;53.496;10.020;2023-09-19T08:36:48;7.57;;;2.23;;
26050;SDS011;13825;53.496;10.020;2023-09-19T08:39:26;4.70;;;2.20;;
26050;SDS011;13825;53.496;10.020;2023-09-19T08:42:07;4.20;;;2.03;;
26050;SDS011;13825;53.496;10.020;2023-09-19T08:44:37;5.67;;;1.80;;
26050;SDS011;13825;53.496;10.020;2023-09-19T08:47:11;5.43;;;1.73;;
26050;SDS011;13825;53.496;10.020;2023-09-19T08:49:45;4.70;;;1.80;;
26050;SDS011;13825;53.496;10.020;2023-09-19T08:52:22;10.27;;;2.67;;
26050;SDS011;13825;53.496;10.020;2023-09-19T08:54:55;7.77;;;2.30;;
26050;SDS011;13825;53.496;10.020;2023-09-19T08:57:27;3.90;;;1.80;;
26050;SDS011;13825;53.496;10.020;2023-09-19T09:00:08;6.67;;;2.40;;
26050;SDS011;13825;53.496;10.020;2023-09-19T09:02:42;6.07;;;2.00;;
26050;SDS011;13825;53.496;10.020;2023-09-19T09:05:10;9.30;;;2.40;;
26050;SDS011;13825;53.496;10.020;2023-09-19T09:07:48;7.10;;;1.90;;
26050;SDS011;13825;53.496;10.020;2023-09-19T09:10:16;9.03;;;2.43;;
26050;SDS011;13825;53.496;10.020;2023-09-19T09:12:47;5.17;;;2.00;;
26050;SDS011;13825;53.496;10.020;2023-09-19T09:15:16;5.63;;;2.13;;
26050;SDS011;13825;53.496;10.020;2023-09-19T09:17:47;7.20;;;2.00;;
26050;SDS011;13825;53.496;10.020;2023-09-19T09:20:15;2.93;;;1.80;;
26050;SDS011;13825;53.496;10.020;2023-09-19T09:22:50;5.50;;;2.10;;
26050;SDS011;13825;53.496;10.020;2023-09-19T09:25:17;6.70;;;2.17;;
26050;SDS011;13825;53.496;10.020;2023-09-19T09:27:45;4.83;;;2.03;;
26050;SDS011;13825;53.496;10.020;2023-09-19T09:30:33;4.33;;;1.87;;
26050;SDS011;13825;53.496;10.020;2023-09-19T09:33:08;5.37;;;1.73;;
26050;SDS011;13825;53.496;10.020;2023-09-19T09:35:37;6.93;;;2.30;;
26050;SDS011;13825;53.496;10.020;2023-09-19T09:38:07;7.77;;;2.23;;
26050;SDS011;13825;53.496;10.020;2023-09-19T09:40:45;6.73;;;2.00;;
26050;SDS011;13825;53.496;10.020;2023-09-19T09:43:32;5.97;;;1.80;;
26050;SDS011;13825;53.496;10.020;2023-09-19T09:46:14;3.73;;;1.63;;
26050;SDS011;13825;53.496;10.020;2023-09-19T09:49:04;3.23;;;1.73;;
26050;SDS011;13825;53.496;10.020;2023-09-19T09:51:44;7.97;;;2.60;;
26050;SDS011;13825;53.496;10.020;2023-09-19T09:54:22;4.47;;;1.90;;
26050;SDS011;13825;53.496;10.020;2023-09-19T09:56:52;4.83;;;1.90;;
26050;SDS011;13825;53.496;10.020;2023-09-19T09:59:24;4.67;;;1.40;;
26050;SDS011;13825;53.496;10.020;2023-09-19T10:02:19;7.53;;;2.23;;
26050;SDS011;13825;53.496;10.020;2023-09-19T10:04:54;8.03;;;1.60;;
26050;SDS011;13825;53.496;10.020;2023-09-19T10:07:40;5.80;;;1.73;;
26050;SDS011;13825;53.496;10.020;2023-09-19T10:10:29;5.33;;;1.93;;
26050;SDS011;13825;53.496;10.020;2023-09-19T10:13:11;2.77;;;1.60;;
26050;SDS011;13825;53.496;10.020;2023-09-19T10:15:42;5.20;;;1.60;;
26050;SDS011;13825;53.496;10.020;2023-09-19T10:18:15;3.37;;;1.80;;
26050;SDS011;13825;53.496;10.020;2023-09-19T10:20:45;5.13;;;1.60;;
26050;SDS011;13825;53.496;10.020;2023-09-19T10:23:15;6.50;;;2.17;;
26050;SDS011;13825;53.496;10.020;2023-09-19T10:25:47;5.97;;;1.90;;
26050;SDS011;13825;53.496;10.020;2023-09-19T10:28:16;3.80;;;1.60;;
26050;SDS011;13825;53.496;10.020;2023-09-19T10:30:47;2.97;;;1.60;;
26050;SDS011;13825;53.496;10.020;2023-09-19T10:33:17;5.50;;;1.80;;
26050;SDS011;13825;53.496;10.020;2023-09-19T10:35:46;7.20;;;1.70;;
26050;SDS011;13825;53.496;10.020;2023-09-19T10:38:15;3.43;;;1.70;;
26050;SDS011;13825;53.496;10.020;2023-09-19T10:40:48;2.47;;;1.47;;
26050;SDS011;13825;53.496;10.020;2023-09-19T10:43:19;5.23;;;1.60;;
26050;SDS011;13825;53.496;10.020;2023-09-19T10:45:48;4.60;;;1.60;;
26050;SDS011;13825;53.496;10.020;2023-09-19T10:48:19;4.40;;;1.43;;
26050;SDS011;13825;53.496;10.020;2023-09-19T10:50:50;8.47;;;1.90;;
26050;SDS011;13825;53.496;10.020;2023-09-19T10:53:24;6.93;;;1.70;;
26050;SDS011;13825;53.496;10.020;2023-09-19T10:55:54;5.53;;;1.63;;
26050;SDS011;13825;53.496;10.020;2023-09-19T10:58:25;4.00;;;1.57;;
26050;SDS011;13825;53.496;10.020;2023-09-19T11:00:54;4.67;;;1.70;;
26050;SDS011;13825;53.496;10.020;2023-09-19T11:03:28;4.40;;;1.73;;
26050;SDS011;13825;53.496;10.020;2023-09-19T11:06:00;5.93;;;1.87;;
26050;SDS011;13825;53.496;10.020;2023-09-19T11:11:47;2.83;;;1.20;;
26050;SDS011;13825;53.496;10.020;2023-09-19T11:14:28;6.17;;;1.70;;
26050;SDS011;13825;53.496;10.020;2023-09-19T11:20:21;6.60;;;1.87;;
26050;SDS011;13825;53.496;10.020;2023-09-19T11:23:19;5.60;;;1.73;;
26050;SDS011;13825;53.496;10.020;2023-09-19T11:25:51;6.47;;;1.57;;
26050;SDS011;13825;53.496;10.020;2023-09-19T11:28:35;5.70;;;1.70;;
26050;SDS011;13825;53.496;10.020;2023-09-19T11:34:37;2.03;;;1.13;;
26050;SDS011;13825;53.496;10.020;2023-09-19T11:40:46;4.37;;;1.50;;
26050;SDS011;13825;53.496;10.020;2023-09-19T11:43:29;4.20;;;1.30;;
26050;SDS011;13825;53.496;10.020;2023-09-19T11:46:05;3.83;;;1.60;;
26050;SDS011;13825;53.496;10.020;2023-09-19T11:48:33;3.83;;;1.80;;
26050;SDS011;13825;53.496;10.020;2023-09-19T11:51:12;6.07;;;1.70;;
26050;SDS011;13825;53.496;10.020;2023-09-19T11:53:45;3.23;;;1.47;;
26050;SDS011;13825;53.496;10.020;2023-09-19T11:56:14;7.13;;;2.00;;
26050;SDS011;13825;53.496;10.020;2023-09-19T11:58:43;2.67;;;1.50;;
26050;SDS011;13825;53.496;10.020;2023-09-19T12:01:12;2.73;;;1.43;;
26050;SDS011;13825;53.496;10.020;2023-09-19T12:03:52;9.80;;;1.80;;
26050;SDS011;13825;53.496;10.020;2023-09-19T12:06:22;4.53;;;1.70;;
26050;SDS011;13825;53.496;10.020;2023-09-19T12:08:50;6.33;;;1.67;;
26050;SDS011;13825;53.496;10.020;2023-09-19T12:11:20;4.03;;;1.40;;
26050;SDS011;13825;53.496;10.020;2023-09-19T12:13:49;4.53;;;1.70;;
26050;SDS011;13825;53.496;10.020;2023-09-19T12:16:18;4.80;;;1.40;;
26050;SDS011;13825;53.496;10.020;2023-09-19T12:18:48;6.40;;;1.70;;
26050;SDS011;13825;53.496;10.020;2023-09-19T12:21:25;3.63;;;1.67;;
26050;SDS011;13825;53.496;10.020;2023-09-19T12:23:59;3.87;;;2.03;;
26050;SDS011;13825;53.496;10.020;2023-09-19T12:26:41;3.30;;;1.50;;
26050;SDS011;13825;53.496;10.020;2023-09-19T12:29:18;3.80;;;1.60;;
26050;SDS011;13825;53.496;10.020;2023-09-19T12:31:52;4.60;;;1.70;;
26050;SDS011;13825;53.496;10.020;2023-09-19T12:34:24;6.10;;;2.53;;
26050;SDS011;13825;53.496;10.020;2023-09-19T12:37:06;5.03;;;1.57;;
26050;SDS011;13825;53.496;10.020;2023-09-19T12:39:40;5.20;;;1.80;;
26050;SDS011;13825;53.496;10.020;2023-09-19T12:42:11;6.00;;;2.00;;
26050;SDS011;13825;53.496;10.020;2023-09-19T12:44:40;7.90;;;1.80;;
26050;SDS011;13825;53.496;10.020;2023-09-19T12:47:12;4.50;;;1.70;;
26050;SDS011;13825;53.496;10.020;2023-09-19T12:52:42;4.97;;;1.60;;
26050;SDS011;13825;53.496;10.020;2023-09-19T12:55:30;4.63;;;1.80;;
26050;SDS011;13825;53.496;10.020;2023-09-19T12:58:02;4.70;;;2.20;;
26050;SDS011;13825;53.496;10.020;2023-09-19T13:00:35;4.87;;;1.53;;
26050;SDS011;13825;53.496;10.020;2023-09-19T13:03:13;5.27;;;1.97;;
26050;SDS011;13825;53.496;10.020;2023-09-19T13:05:50;4.37;;;1.80;;
26050;SDS011;13825;53.496;10.020;2023-09-19T13:08:20;5.33;;;2.30;;
26050;SDS011;13825;53.496;10.020;2023-09-19T13:11:05;4.00;;;1.60;;
26050;SDS011;13825;53.496;10.020;2023-09-19T13:13:36;7.03;;;2.03;;
26050;SDS011;13825;53.496;10.020;2023-09-19T13:16:06;2.67;;;1.77;;
26050;SDS011;13825;53.496;10.020;2023-09-19T13:18:46;4.70;;;2.10;;
26050;SDS011;13825;53.496;10.020;2023-09-19T13:21:16;4.90;;;1.70;;
26050;SDS011;13825;53.496;10.020;2023-09-19T13:23:53;5.87;;;1.97;;
26050;SDS011;13825;53.496;10.020;2023-09-19T13:26:25;2.83;;;1.80;;
26050;SDS011;13825;53.496;10.020;2023-09-19T13:28:54;3.80;;;1.70;;
26050;SDS011;13825;53.496;10.020;2023-09-19T13:31:21;4.37;;;1.50;;
26050;SDS011;13825;53.496;10.020;2023-09-19T13:33:49;4.67;;;1.90;;
26050;SDS011;13825;53.496;10.020;2023-09-19T13:36:17;4.50;;;1.57;;
26050;SDS011;13825;53.496;10.020;2023-09-19T13:38:44;5.53;;;1.73;;
26050;SDS011;13825;53.496;10.020;2023-09-19T13:41:13;6.70;;;2.33;;
26050;SDS011;13825;53.496;10.020;2023-09-19T13:43:41;4.37;;;1.83;;
26050;SDS011;13825;53.496;10.020;2023-09-19T13:46:17;3.50;;;1.50;;
26050;SDS011;13825;53.496;10.020;2023-09-19T13:48:50;4.50;;;1.70;;
26050;SDS011;13825;53.496;10.020;2023-09-19T13:51:19;4.67;;;1.87;;
26050;SDS011;13825;53.496;10.020;2023-09-19T13:53:48;4.33;;;1.90;;
26050;SDS011;13825;53.496;10.020;2023-09-19T13:56:15;4.73;;;1.80;;
26050;SDS011;13825;53.496;10.020;2023-09-19T13:58:42;6.13;;;2.10;;
26050;SDS011;13825;53.496;10.020;2023-09-19T14:01:12;6.47;;;1.90;;
26050;SDS011;13825;53.496;10.020;2023-09-19T14:03:41;3.83;;;1.47;;
26050;SDS011;13825;53.496;10.020;2023-09-19T14:06:11;5.57;;;1.67;;
26050;SDS011;13825;53.496;10.020;2023-09-19T14:08:38;6.03;;;1.90;;
26050;SDS011;13825;53.496;10.020;2023-09-19T14:11:05;6.63;;;2.00;;
26050;SDS011;13825;53.496;10.020;2023-09-19T14:13:33;5.20;;;2.57;;
26050;SDS011;13825;53.496;10.020;2023-09-19T14:16:02;3.10;;;1.60;;
26050;SDS011;13825;53.496;10.020;2023-09-19T14:18:30;4.13;;;1.57;;
26050;SDS011;13825;53.496;10.020;2023-09-19T14:20:59;7.13;;;2.03;;
26050;SDS011;13825;53.496;10.020;2023-09-19T14:23:33;3.97;;;1.80;;
26050;SDS011;13825;53.496;10.020;2023-09-19T14:26:01;4.47;;;1.90;;
26050;SDS011;13825;53.496;10.020;2023-09-19T14:28:28;4.10;;;1.87;;
26050;SDS011;13825;53.496;10.020;2023-09-19T14:30:55;2.90;;;1.90;;
26050;SDS011;13825;53.496;10.020;2023-09-19T14:33:23;5.20;;;1.77;;
26050;SDS011;13825;53.496;10.020;2023-09-19T14:35:50;5.63;;;2.07;;
26050;SDS011;13825;53.496;10.020;2023-09-19T14:38:19;2.83;;;1.70;;
26050;SDS011;13825;53.496;10.020;2023-09-19T14:40:45;5.33;;;1.70;;
26050;SDS011;13825;53.496;10.020;2023-09-19T14:43:15;2.77;;;1.60;;
26050;SDS011;13825;53.496;10.020;2023-09-19T14:45:42;3.90;;;1.80;;
26050;SDS011;13825;53.496;10.020;2023-09-19T14:48:09;5.23;;;1.73;;
26050;SDS011;13825;53.496;10.020;2023-09-19T14:50:37;5.33;;;1.63;;
26050;SDS011;13825;53.496;10.020;2023-09-19T14:53:04;5.73;;;1.60;;
26050;SDS011;13825;53.496;10.020;2023-09-19T14:55:37;2.97;;;1.70;;
26050;SDS011;13825;53.496;10.020;2023-09-19T14:58:06;4.93;;;1.50;;
26050;SDS011;13825;53.496;10.020;2023-09-19T15:00:34;6.47;;;2.00;;
26050;SDS011;13825;53.496;10.020;2023-09-19T15:03:01;3.83;;;1.77;;
26050;SDS011;13825;53.496;10.020;2023-09-19T15:05:28;3.97;;;1.90;;
26050;SDS011;13825;53.496;10.020;2023-09-19T15:07:55;5.93;;;2.10;;
26050;SDS011;13825;53.496;10.020;2023-09-19T15:10:23;5.80;;;1.93;;
26050;SDS011;13825;53.496;10.020;2023-09-19T15:12:51;4.63;;;1.80;;
26050;SDS011;13825;53.496;10.020;2023-09-19T15:15:19;5.33;;;1.90;;
26050;SDS011;13825;53.496;10.020;2023-09-19T15:17:46;9.90;;;2.03;;
26050;SDS011;13825;53.496;10.020;2023-09-19T15:20:13;5.17;;;1.70;;
26050;SDS011;13825;53.496;10.020;2023-09-19T15:22:44;3.87;;;1.87;;
26050;SDS011;13825;53.496;10.020;2023-09-19T15:25:20;3.67;;;2.00;;
26050;SDS011;13825;53.496;10.020;2023-09-19T15:27:49;6.20;;;2.50;;
26050;SDS011;13825;53.496;10.020;2023-09-19T15:30:23;6.17;;;2.43;;
26050;SDS011;13825;53.496;10.020;2023-09-19T15:32:51;8.43;;;2.60;;
26050;SDS011;13825;53.496;10.020;2023-09-19T15:35:17;4.33;;;2.10;;
26050;SDS011;13825;53.496;10.020;2023-09-19T15:37:44;5.53;;;2.10;;
26050;SDS011;13825;53.496;10.020;2023-09-19T15:40:11;5.93;;;2.13;;
26050;SDS011;13825;53.496;10.020;2023-09-19T15:42:38;7.20;;;2.07;;
26050;SDS011;13825;53.496;10.020;2023-09-19T15:45:06;4.27;;;2.43;;
26050;SDS011;13825;53.496;10.020;2023-09-19T15:47:36;8.90;;;2.27;;
26050;SDS011;13825;53.496;10.020;2023-09-19T15:50:04;7.33;;;2.10;;
26050;SDS011;13825;53.496;10.020;2023-09-19T15:52:32;5.70;;;2.03;;
26050;SDS011;13825;53.496;10.020;2023-09-19T15:54:59;5.03;;;2.03;;
26050;SDS011;13825;53.496;10.020;2023-09-19T15:57:28;5.07;;;2.20;;
26050;SDS011;13825;53.496;10.020;2023-09-19T15:59:58;6.27;;;2.20;;
26050;SDS011;13825;53.496;10.020;2023-09-19T16:02:36;3.37;;;2.03;;
26050;SDS011;13825;53.496;10.020;2023-09-19T16:05:03;7.47;;;1.90;;
26050;SDS011;13825;53.496;10.020;2023-09-19T16:07:33;7.20;;;2.03;;
26050;SDS011;13825;53.496;10.020;2023-09-19T16:10:03;6.40;;;2.07;;
26050;SDS011;13825;53.496;10.020;2023-09-19T16:12:34;3.90;;;1.87;;
26050;SDS011;13825;53.496;10.020;2023-09-19T16:15:04;3.63;;;1.80;;
26050;SDS011;13825;53.496;10.020;2023-09-19T16:17:45;5.83;;;2.10;;
26050;SDS011;13825;53.496;10.020;2023-09-19T16:20:13;6.00;;;1.90;;
26050;SDS011;13825;53.496;10.020;2023-09-19T16:22:41;7.40;;;2.20;;
26050;SDS011;13825;53.496;10.020;2023-09-19T16:25:12;5.23;;;1.90;;
26050;SDS011;13825;53.496;10.020;2023-09-19T16:27:39;5.50;;;2.20;;
26050;SDS011;13825;53.496;10.020;2023-09-19T16:30:06;2.77;;;1.73;;
26050;SDS011;13825;53.496;10.020;2023-09-19T16:32:38;9.80;;;2.10;;
26050;SDS011;13825;53.496;10.020;2023-09-19T16:35:07;7.63;;;1.77;;
26050;SDS011;13825;53.496;10.020;2023-09-19T16:37:34;4.50;;;2.00;;
26050;SDS011;13825;53.496;10.020;2023-09-19T16:40:11;5.03;;;1.90;;
26050;SDS011;13825;53.496;10.020;2023-09-19T16:42:41;4.17;;;1.90;;